Time;durP1;ratioP1;P1;durP2;ratioP2;P2;SDS_P1;SDS_P2;PMS_P1;PMS_P2;Temp;Humidity;BMP_temperature;BMP_pressure;BME280_temperature;BME280_humidity;BME280_pressure;Samples;Min_cycle;Max_cycle;Signal;HPM_P1;HPM_P2
2023/05/29 00:01:59;;;;;;;7.57;6.67;;;19.00;40.40;;;;;;20673;6843;117287;-72
2023/05/29 00:04:24;;;;;;;6.70;6.20;;;18.80;40.50;;;;;;20709;6843;118530;-72
2023/05/29 00:06:50;;;;;;;7.72;7.12;;;18.40;40.80;;;;;;20517;6843;281568;-72
2023/05/29 00:09:16;;;;;;;8.30;7.53;;;18.40;41.50;;;;;;20503;6843;309500;-72
2023/05/29 00:11:41;;;;;;;7.95;7.15;;;18.70;41.10;;;;;;20487;6843;308491;-72
2023/05/29 00:14:08;;;;;;;7.45;6.75;;;18.90;40.70;;;;;;20514;6843;291425;-72
2023/05/29 00:16:34;;;;;;;7.60;6.27;;;19.00;40.80;;;;;;20712;6843;117177;-72
2023/05/29 00:18:59;;;;;;;8.10;5.90;;;18.70;40.80;;;;;;20715;6843;118580;-71
2023/05/29 00:21:25;;;;;;;6.60;6.00;;;18.20;41.10;;;;;;20714;6843;117775;-72
2023/05/29 00:23:50;;;;;;;6.53;5.85;;;17.90;41.50;;;;;;20699;6843;120814;-72
2023/05/29 00:26:16;;;;;;;6.07;5.50;;;17.70;41.80;;;;;;20710;6843;117427;-72
2023/05/29 00:28:41;;;;;;;7.60;6.90;;;17.40;42.10;;;;;;20501;6843;289623;-71
2023/05/29 00:31:07;;;;;;;7.37;6.65;;;18.00;42.00;;;;;;20505;6843;305722;-72
2023/05/29 00:33:33;;;;;;;7.90;6.13;;;18.00;42.00;;;;;;20688;6843;147269;-72
2023/05/29 00:35:58;;;;;;;6.47;5.87;;;17.90;41.90;;;;;;20702;6843;117258;-72
2023/05/29 00:38:24;;;;;;;5.57;5.05;;;17.70;42.30;;;;;;20698;6843;117640;-72
2023/05/29 00:40:51;;;;;;;6.83;6.33;;;17.40;42.50;;;;;;20496;6843;278397;-72
2023/05/29 00:43:16;;;;;;;7.03;6.03;;;17.60;42.50;;;;;;20699;6843;117168;-71
2023/05/29 00:45:44;;;;;;;7.10;6.50;;;17.80;42.30;;;;;;20480;6843;325493;-72
2023/05/29 00:48:09;;;;;;;7.32;6.57;;;17.70;42.20;;;;;;20503;6843;309394;-72
2023/05/29 00:50:35;;;;;;;6.93;6.30;;;18.00;41.80;;;;;;20505;6843;278661;-71
2023/05/29 00:53:01;;;;;;;6.40;5.90;;;18.20;41.90;;;;;;20507;6843;278087;-71
2023/05/29 00:55:27;;;;;;;6.83;5.20;;;18.10;41.50;;;;;;20700;6843;117183;-72
2023/05/29 00:57:52;;;;;;;6.03;5.60;;;18.10;41.50;;;;;;20675;6843;117286;-72
2023/05/29 01:00:20;;;;;;;5.93;5.43;;;17.70;41.90;;;;;;20682;6843;117642;-72
2023/05/29 01:02:45;;;;;;;6.50;5.87;;;17.40;42.50;;;;;;20689;6843;117523;-72
2023/05/29 01:05:11;;;;;;;6.60;6.00;;;16.90;43.20;;;;;;20697;6843;117220;-72
2023/05/29 01:07:37;;;;;;;6.17;5.23;;;16.90;43.20;;;;;;20686;6843;121017;-72
2023/05/29 01:10:03;;;;;;;5.57;5.17;;;16.80;43.60;;;;;;20709;6843;117290;-71
2023/05/29 01:12:45;;;;;;;6.73;6.13;;;16.70;43.70;;;;;;20503;6842;309723;-72
2023/05/29 01:15:27;;;;;;;6.17;5.50;;;17.00;43.90;;;;;;20710;6843;116981;-72
2023/05/29 01:18:12;;;;;;;6.63;6.03;;;17.00;43.60;;;;;;20685;6843;117092;-71
2023/05/29 01:20:54;;;;;;;5.87;5.40;;;16.80;43.70;;;;;;20672;6843;117523;-72
2023/05/29 01:23:46;;;;;;;7.00;5.90;;;16.60;43.90;;;;;;20684;6843;117449;-72
2023/05/29 01:26:31;;;;;;;7.53;6.63;;;16.40;44.20;;;;;;20683;6843;117738;-72
2023/05/29 01:28:56;;;;;;;7.47;6.73;;;16.30;44.30;;;;;;20720;6843;121773;-71
2023/05/29 01:31:23;;;;;;;9.23;8.40;;;16.40;44.90;;;;;;20493;6843;308044;-72
2023/05/29 01:33:54;;;;;;;9.18;8.13;;;16.40;44.80;;;;;;20483;6843;404048;-72
2023/05/29 01:36:20;;;;;;;7.73;7.07;;;16.90;44.40;;;;;;20496;6843;307613;-72
2023/05/29 01:38:46;;;;;;;7.43;6.83;;;17.50;43.60;;;;;;20500;6843;277992;-72
2023/05/29 01:41:12;;;;;;;5.53;5.13;;;17.50;43.10;;;;;;20698;6843;119812;-72
2023/05/29 01:43:37;;;;;;;6.20;5.60;;;17.30;43.10;;;;;;20675;6843;120331;-72
2023/05/29 01:46:03;;;;;;;6.87;6.20;;;17.00;43.40;;;;;;20491;6843;307542;-73
2023/05/29 01:48:28;;;;;;;8.47;6.60;;;17.10;43.30;;;;;;20710;6843;117635;-72
2023/05/29 01:50:54;;;;;;;7.12;5.65;;;17.10;43.40;;;;;;20505;6843;283495;-72
2023/05/29 01:53:20;;;;;;;5.43;4.93;;;17.30;43.30;;;;;;20704;6843;119868;-72
2023/05/29 01:55:45;;;;;;;5.17;4.70;;;17.20;43.10;;;;;;20688;6843;121161;-72
2023/05/29 01:58:11;;;;;;;6.00;5.22;;;16.90;43.30;;;;;;20494;6843;337880;-72
2023/05/29 02:00:37;;;;;;;6.73;5.97;;;17.40;41.70;;;;;;20494;6843;308343;-72
2023/05/29 02:03:03;;;;;;;5.50;5.00;;;17.40;41.70;;;;;;20710;6843;117635;-72
2023/05/29 02:05:28;;;;;;;5.57;5.18;;;17.30;42.00;;;;;;20502;6843;280332;-72
2023/05/29 02:07:54;;;;;;;5.60;5.10;;;17.60;42.00;;;;;;20503;6843;337614;-72
2023/05/29 02:10:20;;;;;;;5.30;4.90;;;17.60;42.00;;;;;;20715;6843;117185;-72
2023/05/29 02:12:45;;;;;;;5.20;4.70;;;17.50;42.20;;;;;;20704;6843;118699;-72
2023/05/29 02:15:12;;;;;;;5.60;5.20;;;17.20;42.60;;;;;;20502;6843;312555;-72
2023/05/29 02:17:38;;;;;;;5.83;5.30;;;17.30;42.50;;;;;;20691;6843;120050;-72
2023/05/29 02:20:04;;;;;;;6.23;5.20;;;17.30;43.10;;;;;;20718;6843;117331;-71
2023/05/29 02:22:29;;;;;;;6.53;5.93;;;17.00;43.40;;;;;;20494;6842;278444;-72
2023/05/29 02:24:55;;;;;;;6.70;5.68;;;17.20;43.60;;;;;;20715;6843;123317;-72
2023/05/29 02:27:20;;;;;;;7.30;6.67;;;17.10;43.50;;;;;;20508;6843;278399;-72
2023/05/29 02:29:47;;;;;;;7.00;6.40;;;17.50;43.00;;;;;;20485;6843;341111;-72
2023/05/29 02:32:12;;;;;;;7.20;5.97;;;17.40;43.20;;;;;;20724;6843;117271;-72
2023/05/29 02:34:38;;;;;;;6.93;6.27;;;17.20;43.30;;;;;;20719;6843;117087;-72
2023/05/29 02:37:03;;;;;;;7.40;6.67;;;16.90;44.50;;;;;;20511;6843;278955;-72
2023/05/29 02:39:29;;;;;;;7.37;5.93;;;17.00;44.00;;;;;;20697;6843;117195;-73
2023/05/29 02:41:55;;;;;;;7.10;6.40;;;17.00;44.30;;;;;;20498;6843;278907;-72
2023/05/29 02:44:21;;;;;;;5.83;5.43;;;16.90;44.10;;;;;;20711;6843;117268;-72
2023/05/29 02:46:47;;;;;;;6.07;5.47;;;16.60;45.20;;;;;;20713;6843;117839;-71
2023/05/29 02:49:13;;;;;;;7.00;6.28;;;16.50;44.60;;;;;;20499;6843;337589;-72
2023/05/29 02:51:39;;;;;;;5.87;5.47;;;16.60;44.50;;;;;;20700;6843;122848;-72
2023/05/29 02:54:05;;;;;;;6.90;6.20;;;16.60;44.50;;;;;;20495;6843;329273;-72
2023/05/29 02:56:32;;;;;;;6.23;5.73;;;16.70;44.20;;;;;;20718;6843;119820;-72
2023/05/29 02:58:58;;;;;;;7.00;6.30;;;16.70;45.30;;;;;;20497;6843;307050;-71
2023/05/29 03:01:23;;;;;;;10.40;5.87;;;16.70;44.60;;;;;;20712;6843;117597;-72
2023/05/29 03:03:50;;;;;;;6.77;6.17;;;16.70;44.80;;;;;;20483;6843;307449;-72
2023/05/29 03:06:17;;;;;;;7.47;6.77;;;16.60;44.50;;;;;;20499;6843;311354;-71
2023/05/29 03:08:41;;;;;;;5.90;5.40;;;16.90;44.10;;;;;;20711;6843;119623;-71
2023/05/29 03:11:10;;;;;;;6.75;6.10;;;16.70;44.20;;;;;;20500;6843;336707;-71
2023/05/29 03:13:36;;;;;;;7.27;5.70;;;16.70;44.30;;;;;;20692;6843;120416;-72
2023/05/29 03:16:01;;;;;;;6.37;5.77;;;16.50;44.50;;;;;;20500;6843;278859;-71
2023/05/29 03:18:26;;;;;;;6.60;6.00;;;16.60;44.90;;;;;;20716;6843;118563;-71
2023/05/29 03:20:53;;;;;;;6.53;6.03;;;16.60;44.60;;;;;;20503;6843;312222;-71
2023/05/29 03:23:18;;;;;;;7.15;6.45;;;16.50;44.50;;;;;;20490;6843;301817;-71
2023/05/29 03:25:45;;;;;;;6.37;5.80;;;16.60;44.90;;;;;;20695;6843;129487;-72
2023/05/29 03:28:10;;;;;;;7.55;6.85;;;16.60;44.30;;;;;;20497;6843;331238;-71
2023/05/29 03:30:36;;;;;;;7.20;6.33;;;16.50;44.80;;;;;;20719;6843;117151;-71
2023/05/29 03:33:03;;;;;;;7.67;6.33;;;16.50;44.70;;;;;;20716;6843;117015;-71
2023/05/29 03:35:28;;;;;;;7.60;6.90;;;16.20;45.00;;;;;;20510;6842;280337;-72
2023/05/29 03:37:53;;;;;;;10.07;7.83;;;16.30;45.40;;;;;;20490;6843;296378;-71
2023/05/29 03:40:19;;;;;;;8.02;7.25;;;16.60;44.80;;;;;;20500;6843;308064;-72
2023/05/29 03:42:44;;;;;;;8.00;7.20;;;16.80;44.60;;;;;;20505;6843;280290;-71
2023/05/29 03:45:10;;;;;;;6.67;5.97;;;16.90;44.40;;;;;;20709;6843;118134;-71
2023/05/29 03:47:37;;;;;;;7.50;6.90;;;16.70;44.60;;;;;;20487;6843;278367;-72
2023/05/29 03:50:03;;;;;;;6.83;6.10;;;16.70;44.80;;;;;;20689;6843;117212;-71
2023/05/29 03:52:28;;;;;;;7.57;7.03;;;16.50;45.00;;;;;;20489;6843;285197;-71
2023/05/29 03:54:54;;;;;;;7.67;6.27;;;16.60;44.80;;;;;;20706;6843;117062;-72
2023/05/29 03:57:20;;;;;;;6.60;6.00;;;16.40;45.30;;;;;;20694;6843;117032;-71
2023/05/29 03:59:45;;;;;;;7.15;6.47;;;16.10;45.40;;;;;;20480;6843;279007;-72
2023/05/29 04:02:10;;;;;;;6.63;6.10;;;16.30;45.10;;;;;;20707;6843;121856;-72
2023/05/29 04:04:39;;;;;;;6.97;6.33;;;16.20;45.10;;;;;;20699;6843;120171;-72
2023/05/29 04:07:03;;;;;;;7.00;6.40;;;16.00;45.60;;;;;;20490;6843;278477;-72
2023/05/29 04:09:29;;;;;;;7.72;7.03;;;16.60;45.30;;;;;;20490;6843;307571;-72
2023/05/29 04:11:55;;;;;;;7.07;6.47;;;16.50;45.20;;;;;;20525;6843;120758;-72
2023/05/29 04:14:20;;;;;;;6.40;5.90;;;16.50;45.30;;;;;;20702;6843;117054;-71
2023/05/29 04:16:46;;;;;;;7.83;7.13;;;16.20;45.60;;;;;;20455;6843;305395;-73
2023/05/29 04:19:11;;;;;;;11.03;8.13;;;16.30;45.70;;;;;;20687;6843;117173;-72
2023/05/29 04:21:37;;;;;;;10.07;9.07;;;16.30;45.80;;;;;;20650;6843;117420;-71
2023/05/29 04:24:02;;;;;;;14.13;12.67;;;16.20;46.20;;;;;;20487;6843;278525;-72
2023/05/29 04:26:28;;;;;;;15.03;13.20;;;16.30;46.10;;;;;;20388;6843;286824;-70
2023/05/29 04:28:57;;;;;;;12.03;10.37;;;16.70;45.50;;;;;;20690;6843;118624;-70
2023/05/29 04:31:22;;;;;;;11.73;9.60;;;16.50;45.90;;;;;;20696;6843;122247;-70
2023/05/29 04:33:45;;;;;;;15.87;9.23;;;16.50;45.90;;;;;;20672;6843;128823;-70
2023/05/29 04:36:11;;;;;;;14.75;13.40;;;16.30;46.20;;;;;;20478;6843;312271;-71
2023/05/29 04:38:37;;;;;;;10.97;9.27;;;16.50;46.10;;;;;;20693;6843;117766;-70
2023/05/29 04:41:02;;;;;;;10.90;9.82;;;16.60;46.10;;;;;;20482;6843;341443;-71
2023/05/29 04:43:28;;;;;;;10.80;9.87;;;17.20;45.40;;;;;;20485;6843;311692;-72
2023/05/29 04:45:55;;;;;;;10.03;8.90;;;17.20;45.40;;;;;;20105;6862;300106;-71
2023/05/29 04:48:20;;;;;;;7.60;6.90;;;17.50;45.20;;;;;;20691;6847;117305;-70
2023/05/29 04:50:45;;;;;;;7.60;6.77;;;17.40;45.30;;;;;;20697;6847;120208;-73
2023/05/29 04:53:11;;;;;;;6.20;5.70;;;17.10;45.80;;;;;;20692;6847;121313;-73
2023/05/29 04:55:36;;;;;;;6.40;5.80;;;16.90;46.40;;;;;;20682;6847;118375;-72
2023/05/29 04:58:02;;;;;;;6.10;5.60;;;16.80;46.80;;;;;;20691;6847;117324;-72
2023/05/29 05:00:28;;;;;;;7.20;5.20;;;16.60;47.10;;;;;;20697;6847;117533;-72
2023/05/29 05:02:55;;;;;;;7.15;6.53;;;16.60;47.00;;;;;;20484;6847;312246;-72
2023/05/29 05:05:21;;;;;;;7.37;6.77;;;16.90;47.10;;;;;;20462;6847;307791;-72
2023/05/29 05:07:46;;;;;;;6.83;6.30;;;17.40;46.80;;;;;;20464;6847;320764;-72
2023/05/29 05:10:12;;;;;;;6.50;5.90;;;17.70;45.80;;;;;;20684;6847;117352;-72
2023/05/29 05:12:37;;;;;;;7.20;6.50;;;17.50;45.80;;;;;;20481;6847;278221;-72
2023/05/29 05:15:03;;;;;;;6.43;5.70;;;17.60;45.70;;;;;;20682;6847;117181;-72
2023/05/29 05:17:29;;;;;;;6.50;5.90;;;17.40;45.90;;;;;;20453;6847;279137;-73
2023/05/29 05:19:54;;;;;;;6.75;6.12;;;17.40;45.80;;;;;;20468;6847;308355;-73
2023/05/29 05:22:20;;;;;;;7.07;6.20;;;17.60;45.70;;;;;;20480;6847;279677;-72
2023/05/29 05:24:46;;;;;;;6.70;6.10;;;17.80;44.80;;;;;;20470;6847;308600;-72
2023/05/29 05:27:12;;;;;;;6.77;5.20;;;17.90;45.10;;;;;;20696;6847;119834;-72
2023/05/29 05:29:38;;;;;;;6.43;5.83;;;17.90;45.30;;;;;;20460;6847;281052;-74
2023/05/29 05:32:05;;;;;;;6.90;6.30;;;17.90;45.30;;;;;;20487;6847;278294;-72
2023/05/29 05:34:31;;;;;;;6.40;5.80;;;18.10;45.00;;;;;;20476;6847;307707;-71
2023/05/29 05:36:57;;;;;;;5.97;5.57;;;18.40;45.30;;;;;;20460;6847;316920;-72
2023/05/29 05:39:23;;;;;;;6.07;5.67;;;18.40;44.60;;;;;;20486;6847;320421;-72
2023/05/29 05:41:51;;;;;;;6.37;5.80;;;18.60;44.60;;;;;;20478;6847;312693;-71
2023/05/29 05:44:16;;;;;;;5.83;5.10;;;18.70;44.50;;;;;;20672;6847;117212;-71
2023/05/29 05:46:42;;;;;;;6.10;5.60;;;18.50;44.80;;;;;;20490;6847;277768;-71
2023/05/29 05:49:08;;;;;;;5.47;5.07;;;18.50;45.00;;;;;;20690;6847;117571;-71
2023/05/29 05:51:33;;;;;;;6.80;6.20;;;18.40;45.30;;;;;;20465;6847;308247;-72
2023/05/29 05:53:59;;;;;;;6.53;6.03;;;18.40;45.10;;;;;;20492;6847;337689;-71
2023/05/29 05:56:26;;;;;;;7.13;6.60;;;18.60;44.60;;;;;;20489;6847;278744;-71
2023/05/29 05:58:50;;;;;;;7.72;7.03;;;18.90;44.10;;;;;;20480;6845;307954;-71
2023/05/29 06:01:15;;;;;;;6.82;6.32;;;19.00;43.90;;;;;;20455;6847;283627;-70
2023/05/29 06:03:41;;;;;;;6.57;5.87;;;19.20;43.90;;;;;;20665;6847;147912;-69
2023/05/29 06:06:08;;;;;;;6.25;5.65;;;19.00;44.30;;;;;;20661;6847;117807;-68
2023/05/29 06:08:33;;;;;;;6.53;6.00;;;18.80;44.80;;;;;;20661;6847;117625;-68
2023/05/29 06:10:59;;;;;;;6.50;5.80;;;18.60;45.20;;;;;;20699;6847;117602;-68
2023/05/29 06:13:24;;;;;;;6.63;5.93;;;18.60;45.60;;;;;;20696;6847;118145;-68
2023/05/29 06:15:50;;;;;;;6.95;6.43;;;18.70;46.00;;;;;;20456;6847;337638;-68
2023/05/29 06:18:16;;;;;;;6.87;6.28;;;19.20;44.80;;;;;;20485;6847;307397;-68
2023/05/29 06:20:41;;;;;;;7.33;6.73;;;20.00;43.50;;;;;;20442;6847;298889;-68
2023/05/29 06:23:07;;;;;;;5.85;5.35;;;20.90;42.50;;;;;;20674;6847;117378;-69
2023/05/29 06:25:35;;;;;;;6.10;5.60;;;21.50;43.20;;;;;;20665;6847;117647;-71
2023/05/29 06:28:02;;;;;;;6.23;5.73;;;22.20;43.40;;;;;;20680;6847;117332;-71
2023/05/29 06:30:27;;;;;;;6.50;6.00;;;22.20;43.30;;;;;;20674;6847;117251;-70
2023/05/29 06:32:53;;;;;;;6.37;5.87;;;22.60;43.10;;;;;;20682;6847;117577;-72
2023/05/29 06:35:18;;;;;;;5.93;5.47;;;22.90;42.50;;;;;;20677;6847;118584;-72
2023/05/29 06:37:45;;;;;;;6.83;6.23;;;23.30;42.10;;;;;;20459;6847;297968;-72
2023/05/29 06:40:10;;;;;;;7.32;6.72;;;24.10;38.20;;;;;;20461;6847;306402;-72
2023/05/29 06:42:37;;;;;;;6.78;6.28;;;25.00;36.30;;;;;;20481;6847;336763;-72
2023/05/29 06:45:02;;;;;;;6.57;6.07;;;25.80;35.40;;;;;;20613;6847;118022;-70
2023/05/29 06:47:28;;;;;;;6.90;6.40;;;26.10;36.10;;;;;;20479;6847;310349;-71
2023/05/29 06:49:54;;;;;;;7.28;6.68;;;26.50;33.80;;;;;;20462;6847;278808;-72
2023/05/29 06:52:19;;;;;;;6.68;6.07;;;27.00;33.60;;;;;;20677;6847;117175;-72
2023/05/29 06:54:45;;;;;;;6.82;6.12;;;27.00;34.20;;;;;;20670;6847;119842;-72
2023/05/29 06:57:10;;;;;;;5.75;5.25;;;26.90;34.90;;;;;;20681;6847;118110;-71
2023/05/29 06:59:36;;;;;;;6.05;5.45;;;26.90;35.10;;;;;;20659;6847;122025;-71
2023/05/29 07:02:01;;;;;;;5.90;5.33;;;26.90;34.90;;;;;;20626;6847;123245;-72
2023/05/29 07:04:28;;;;;;;6.73;5.30;;;26.70;33.90;;;;;;20677;6847;117158;-70
2023/05/29 07:06:53;;;;;;;5.83;5.30;;;26.70;33.90;;;;;;20672;6847;120224;-70
2023/05/29 07:09:19;;;;;;;6.00;5.50;;;26.60;33.50;;;;;;20680;6846;117148;-71
2023/05/29 07:11:45;;;;;;;6.27;5.70;;;26.40;33.30;;;;;;20667;6847;117288;-71
2023/05/29 07:14:10;;;;;;;7.07;6.43;;;26.30;33.20;;;;;;20455;6847;280454;-71
2023/05/29 07:16:36;;;;;;;6.30;5.80;;;26.40;32.20;;;;;;20476;6847;310129;-71
2023/05/29 07:19:02;;;;;;;5.50;5.10;;;26.40;32.90;;;;;;20689;6847;117083;-71
2023/05/29 07:21:27;;;;;;;6.40;5.90;;;26.40;32.30;;;;;;20485;6847;307356;-71
2023/05/29 07:23:53;;;;;;;6.40;5.80;;;26.40;32.40;;;;;;20484;6847;277903;-70
2023/05/29 07:26:19;;;;;;;6.57;6.10;;;26.50;31.60;;;;;;20491;6847;312483;-70
2023/05/29 07:28:44;;;;;;;5.50;5.05;;;26.60;31.20;;;;;;20706;6847;117618;-71
2023/05/29 07:31:10;;;;;;;6.43;5.90;;;26.20;31.30;;;;;;20484;6847;309676;-71
2023/05/29 07:33:35;;;;;;;7.13;5.70;;;26.10;31.90;;;;;;20679;6847;119372;-71
2023/05/29 07:36:02;;;;;;;6.33;5.83;;;25.80;32.50;;;;;;20493;6847;281833;-72
2023/05/29 07:38:27;;;;;;;6.93;5.27;;;25.80;32.50;;;;;;20687;6847;117248;-72
2023/05/29 07:40:53;;;;;;;6.30;5.00;;;25.70;33.00;;;;;;20701;6847;117183;-71
2023/05/29 07:43:18;;;;;;;7.18;6.18;;;25.50;34.10;;;;;;20490;6847;276774;-77
2023/05/29 07:45:45;;;;;;;8.07;6.20;;;26.00;33.70;;;;;;20447;6847;328382;-75
2023/05/29 07:48:10;;;;;;;6.00;5.40;;;26.00;33.60;;;;;;20704;6847;117444;-75
2023/05/29 07:50:36;;;;;;;8.73;6.40;;;26.00;33.50;;;;;;20488;6847;307840;-76
2023/05/29 07:53:01;;;;;;;5.80;5.30;;;26.20;33.10;;;;;;20698;6847;117289;-75
2023/05/29 07:55:27;;;;;;;6.25;5.70;;;26.10;33.20;;;;;;20477;6847;279014;-76
2023/05/29 07:57:52;;;;;;;5.93;5.43;;;26.20;33.20;;;;;;20681;6847;117634;-77
2023/05/29 08:00:18;;;;;;;8.00;5.75;;;26.10;33.30;;;;;;20492;6847;308917;-75
2023/05/29 08:02:44;;;;;;;9.03;6.00;;;26.30;33.30;;;;;;20479;6847;312002;-72
2023/05/29 08:05:13;;;;;;;6.37;5.50;;;26.60;32.50;;;;;;20695;6847;118353;-78
2023/05/29 08:07:38;;;;;;;6.30;5.80;;;26.50;32.90;;;;;;20473;6847;319751;-74
2023/05/29 08:10:05;;;;;;;9.20;6.17;;;26.90;31.60;;;;;;20483;6847;307782;-76
2023/05/29 08:12:31;;;;;;;5.80;5.23;;;26.80;32.10;;;;;;20684;6847;121424;-72
2023/05/29 08:14:58;;;;;;;5.77;5.30;;;26.70;32.00;;;;;;20699;6847;117722;-77
2023/05/29 08:17:23;;;;;;;6.15;5.60;;;26.60;32.60;;;;;;20494;6847;282355;-76
2023/05/29 08:19:49;;;;;;;6.27;5.77;;;26.80;32.20;;;;;;20472;6846;297109;-76
2023/05/29 08:22:15;;;;;;;6.07;5.47;;;27.00;32.70;;;;;;20705;6846;117223;-75
2023/05/29 08:24:41;;;;;;;6.83;5.30;;;27.00;32.70;;;;;;20695;6847;117050;-76
2023/05/29 08:27:06;;;;;;;5.07;4.77;;;27.00;33.00;;;;;;20691;6847;117060;-73
2023/05/29 08:29:32;;;;;;;6.18;5.68;;;26.80;32.40;;;;;;20478;6847;307725;-78
2023/05/29 08:31:58;;;;;;;5.20;4.90;;;26.80;32.30;;;;;;20706;6847;118202;-72
2023/05/29 08:34:24;;;;;;;6.23;5.63;;;26.90;32.30;;;;;;20698;6847;117128;-71
2023/05/29 08:36:51;;;;;;;5.50;5.00;;;26.80;32.40;;;;;;20709;6847;117102;-74
2023/05/29 08:39:15;;;;;;;6.50;5.90;;;26.70;32.30;;;;;;20484;6847;310734;-70
2023/05/29 08:41:47;;;;;;;6.20;5.63;;;26.90;31.80;;;;;;20687;6847;117584;-73
2023/05/29 08:44:12;;;;;;;6.33;5.83;;;27.00;31.40;;;;;;20475;6847;282545;-72
2023/05/29 08:46:38;;;;;;;5.60;5.13;;;27.20;31.40;;;;;;20692;6847;116279;-73
2023/05/29 08:49:04;;;;;;;6.20;5.63;;;27.40;31.20;;;;;;20482;6847;312032;-72
2023/05/29 08:51:31;;;;;;;6.20;5.60;;;27.50;30.70;;;;;;20692;6847;121083;-72
2023/05/29 08:53:55;;;;;;;6.63;6.03;;;27.70;30.60;;;;;;20339;6847;307363;-73
2023/05/29 08:56:22;;;;;;;6.72;6.05;;;28.20;29.80;;;;;;20495;6847;314067;-73
2023/05/29 08:58:48;;;;;;;8.47;5.93;;;28.20;29.80;;;;;;20487;6847;292331;-73
2023/05/29 09:01:14;;;;;;;6.12;5.53;;;28.40;29.70;;;;;;20490;6847;278695;-73
2023/05/29 09:03:41;;;;;;;6.03;5.53;;;28.70;29.40;;;;;;20463;6847;278718;-73
2023/05/29 09:06:06;;;;;;;6.40;5.80;;;28.80;28.80;;;;;;20486;6847;308210;-73
2023/05/29 09:08:32;;;;;;;6.90;5.57;;;28.80;29.40;;;;;;20700;6847;117611;-73
2023/05/29 09:10:57;;;;;;;6.07;5.50;;;28.70;29.30;;;;;;20702;6847;117693;-73
2023/05/29 09:13:24;;;;;;;5.97;5.57;;;28.50;29.90;;;;;;20497;6847;278370;-73
2023/05/29 09:15:50;;;;;;;5.93;5.43;;;28.50;29.40;;;;;;20666;6847;118703;-73
2023/05/29 09:18:15;;;;;;;5.97;5.50;;;28.50;29.60;;;;;;20458;6847;308328;-73
2023/05/29 09:20:41;;;;;;;6.40;5.90;;;28.70;29.00;;;;;;20484;6847;278359;-73
2023/05/29 09:23:08;;;;;;;6.43;5.82;;;28.90;28.70;;;;;;20496;6847;280143;-76
2023/05/29 09:25:33;;;;;;;6.70;5.80;;;29.10;28.90;;;;;;20463;6847;278808;-74
2023/05/29 09:28:04;;;;;;;5.78;5.18;;;29.40;28.30;;;;;;20476;6847;333122;-75
2023/05/29 09:30:36;;;;;;;6.00;5.40;;;29.30;28.50;;;;;;20678;6847;120999;-76
2023/05/29 09:33:01;;;;;;;5.83;5.27;;;29.20;28.40;;;;;;20692;6845;117350;-77
2023/05/29 09:35:37;;;;;;;6.43;5.93;;;29.00;28.60;;;;;;20497;6847;308234;-76
2023/05/29 09:38:03;;;;;;;6.00;5.50;;;29.00;28.40;;;;;;20711;6847;117250;-75
2023/05/29 09:40:32;;;;;;;5.90;5.37;;;28.80;28.40;;;;;;20705;6847;117173;-77
2023/05/29 09:43:17;;;;;;;6.77;5.87;;;28.70;28.80;;;;;;20712;6847;119296;-74
2023/05/29 09:45:43;;;;;;;5.37;4.93;;;28.60;29.10;;;;;;20691;6847;122520;-75
2023/05/29 09:48:08;;;;;;;6.12;5.30;;;28.60;29.10;;;;;;20470;6847;319444;-74
2023/05/29 09:50:34;;;;;;;5.57;5.10;;;28.90;28.80;;;;;;20695;6847;117856;-76
2023/05/29 09:53:01;;;;;;;5.97;5.43;;;29.30;28.50;;;;;;20500;6847;278269;-74
2023/05/29 09:55:26;;;;;;;5.93;5.43;;;29.30;28.50;;;;;;20696;6847;118904;-81
2023/05/29 09:57:53;;;;;;;5.47;4.97;;;29.40;28.40;;;;;;20672;6847;117179;-79
2023/05/29 10:00:19;;;;;;;5.68;5.10;;;29.40;28.20;;;;;;20499;6847;308301;-78
2023/05/29 10:02:45;;;;;;;5.53;5.03;;;29.90;27.60;;;;;;20512;6847;286688;-78
2023/05/29 10:05:15;;;;;;;5.50;5.10;;;29.90;27.60;;;;;;20711;6847;117150;-81
2023/05/29 10:07:38;;;;;;;5.30;4.83;;;30.00;26.90;;;;;;20461;6847;304332;-83
2023/05/29 10:10:07;;;;;;;5.37;4.80;;;30.00;26.80;;;;;;20715;6847;117333;-87
2023/05/29 10:12:37;;;;;;;6.67;5.27;;;29.90;26.60;;;;;;20718;6847;117109;-84
2023/05/29 10:15:02;;;;;;;5.20;4.80;;;29.60;26.70;;;;;;20490;6847;310023;-84
2023/05/29 10:17:34;;;;;;;5.33;4.60;;;29.50;26.50;;;;;;20705;6847;117723;-78
2023/05/29 10:19:59;;;;;;;4.97;4.60;;;29.40;27.10;;;;;;20680;6847;118392;-80
2023/05/29 10:22:26;;;;;;;4.97;4.47;;;29.20;27.00;;;;;;20711;6847;121785;-82
2023/05/29 10:24:53;;;;;;;5.20;4.70;;;29.00;27.00;;;;;;20509;6847;277885;-82
2023/05/29 10:27:19;;;;;;;5.47;4.97;;;29.10;26.50;;;;;;20509;6847;301057;-80
2023/05/29 10:30:08;;;;;;;5.00;4.60;;;29.40;26.80;;;;;;20489;6847;311783;-80
2023/05/29 10:32:33;;;;;;;5.15;4.65;;;29.80;26.90;;;;;;20505;6847;312764;-80
2023/05/29 10:35:07;;;;;;;5.05;4.65;;;30.10;26.90;;;;;;20477;6847;309530;-85
2023/05/29 10:37:51;;;;;;;4.93;4.50;;;30.30;25.80;;;;;;20686;6847;117897;-82
2023/05/29 10:40:18;;;;;;;4.47;4.10;;;30.10;25.90;;;;;;20712;6847;117686;-88
2023/05/29 10:42:47;;;;;;;4.87;4.47;;;29.80;25.80;;;;;;20488;6847;278259;-79
2023/05/29 10:45:30;;;;;;;5.00;4.60;;;29.80;25.50;;;;;;20478;6846;312307;-78
2023/05/29 10:47:55;;;;;;;4.97;4.47;;;29.90;25.80;;;;;;20717;6847;117481;-80
2023/05/29 10:50:40;;;;;;;4.67;4.30;;;29.70;26.00;;;;;;20503;6847;301888;-79
2023/05/29 10:53:07;;;;;;;4.73;4.40;;;29.60;25.80;;;;;;20664;6847;116658;-79
2023/05/29 10:55:38;;;;;;;5.00;4.50;;;29.50;25.70;;;;;;20501;6847;287769;-79
2023/05/29 10:58:08;;;;;;;4.70;4.30;;;29.60;26.30;;;;;;20186;6847;308170;-79
2023/05/29 11:00:35;;;;;;;5.05;4.55;;;30.00;25.40;;;;;;20478;6847;308216;-78
2023/05/29 11:03:03;;;;;;;5.05;4.40;;;30.00;25.40;;;;;;20471;6847;278839;-79
2023/05/29 11:05:29;;;;;;;5.23;4.73;;;30.20;24.90;;;;;;20489;6847;277928;-79
2023/05/29 11:07:54;;;;;;;5.20;4.60;;;30.20;25.60;;;;;;20462;6847;309942;-79
2023/05/29 11:10:44;;;;;;;4.97;4.60;;;30.00;25.30;;;;;;20697;6847;117164;-80
2023/05/29 11:13:09;;;;;;;4.60;4.20;;;30.00;25.30;;;;;;20457;6847;293801;-78
2023/05/29 11:15:35;;;;;;;4.53;4.13;;;30.00;25.30;;;;;;20454;6847;311880;-81
2023/05/29 11:18:08;;;;;;;5.00;4.50;;;30.10;24.70;;;;;;20482;6847;282800;-77
2023/05/29 11:20:47;;;;;;;5.85;4.85;;;30.20;25.10;;;;;;20487;6847;341810;-78
2023/05/29 11:23:20;;;;;;;4.67;4.03;;;30.30;24.50;;;;;;20680;6847;118539;-77
2023/05/29 11:25:43;;;;;;;4.60;4.20;;;30.10;24.30;;;;;;20430;6847;308341;-78
2023/05/29 11:28:10;;;;;;;4.55;4.25;;;30.10;23.30;;;;;;20474;6847;278683;-78
2023/05/29 11:30:44;;;;;;;4.87;4.20;;;30.20;23.50;;;;;;20483;6847;312919;-78
2023/05/29 11:33:10;;;;;;;6.37;4.10;;;30.20;23.50;;;;;;20668;6847;117669;-77
2023/05/29 11:35:35;;;;;;;4.80;4.40;;;30.10;23.90;;;;;;20458;6847;337755;-78
2023/05/29 11:38:01;;;;;;;4.63;4.23;;;30.00;23.60;;;;;;20505;6847;277771;-78
2023/05/29 11:40:27;;;;;;;4.80;4.40;;;30.10;23.20;;;;;;20488;6847;283454;-80
2023/05/29 11:42:54;;;;;;;5.23;4.27;;;30.10;23.10;;;;;;20517;6847;284046;-80
2023/05/29 11:45:20;;;;;;;4.70;4.30;;;30.10;23.50;;;;;;20674;6847;117803;-79
2023/05/29 11:47:59;;;;;;;5.23;4.50;;;29.90;24.70;;;;;;20467;6847;294709;-78
2023/05/29 11:50:26;;;;;;;4.80;4.40;;;29.90;24.60;;;;;;20471;6847;307420;-79
2023/05/29 11:52:52;;;;;;;4.70;4.37;;;30.00;25.00;;;;;;20672;6847;117845;-81
2023/05/29 11:55:20;;;;;;;4.93;4.30;;;29.80;24.90;;;;;;20465;6846;308559;-77
2023/05/29 11:57:46;;;;;;;4.57;3.93;;;29.80;24.00;;;;;;20689;6847;120061;-78
2023/05/29 12:00:40;;;;;;;6.27;4.27;;;29.70;24.30;;;;;;20490;6847;279186;-79
2023/05/29 12:03:06;;;;;;;4.27;3.97;;;29.60;24.50;;;;;;20687;6847;117577;-80
2023/05/29 12:05:31;;;;;;;5.10;4.60;;;29.40;24.70;;;;;;20469;6847;308198;-77
2023/05/29 12:08:01;;;;;;;4.93;4.53;;;29.30;24.90;;;;;;20508;6847;308217;-78
2023/05/29 12:10:25;;;;;;;5.77;4.47;;;29.40;24.90;;;;;;20708;6847;117547;-75
2023/05/29 12:12:58;;;;;;;5.12;4.62;;;29.20;24.70;;;;;;20481;6847;278414;-77
2023/05/29 12:15:25;;;;;;;4.50;4.20;;;29.20;22.80;;;;;;20707;6847;117181;-77
2023/05/29 12:17:50;;;;;;;4.53;4.13;;;29.10;23.80;;;;;;20485;6847;278928;-77
2023/05/29 12:20:16;;;;;;;5.20;4.70;;;29.10;24.90;;;;;;20497;6847;308372;-77
2023/05/29 12:22:41;;;;;;;4.57;4.23;;;29.20;25.60;;;;;;20700;6847;119634;-77
2023/05/29 12:25:14;;;;;;;4.50;4.20;;;29.10;24.10;;;;;;20494;6847;309098;-77
2023/05/29 12:27:43;;;;;;;5.90;3.90;;;29.10;24.10;;;;;;20720;6847;117006;-76
2023/05/29 12:30:15;;;;;;;7.30;6.70;;;28.90;23.50;;;;;;20542;6847;287706;-77
2023/05/29 12:32:41;;;;;;;4.22;3.83;;;28.90;23.80;;;;;;20475;6847;307838;-77
2023/05/29 12:35:17;;;;;;;4.73;4.17;;;29.00;23.80;;;;;;20491;6847;277782;-77